createdAt,value
2022-11-02T00:01:37.564Z,8.00
2022-11-02T00:04:22.545Z,10.20
2022-11-02T00:07:07.857Z,9.05
2022-11-02T00:09:52.712Z,8.80
2022-11-02T00:12:37.809Z,9.38
2022-11-02T00:15:25.409Z,1.02
2022-11-02T00:18:14.087Z,8.43
2022-11-02T00:20:58.800Z,10.15
2022-11-02T00:23:45.536Z,6.33
2022-11-02T00:26:34.525Z,11.00
2022-11-02T00:29:20.777Z,7.80
2022-11-02T00:32:05.658Z,7.57
2022-11-02T00:34:50.483Z,6.63
2022-11-02T00:37:35.751Z,4.73
2022-11-02T00:40:20.892Z,5.97
2022-11-02T00:43:06.176Z,6.18
2022-11-02T00:45:51.378Z,11.43
2022-11-02T00:48:36.514Z,8.95
2022-11-02T00:51:21.856Z,6.43
2022-11-02T00:54:07.002Z,6.35
2022-11-02T00:56:52.093Z,6.85
2022-11-02T00:59:37.209Z,6.78
2022-11-02T01:02:22.135Z,5.53
2022-11-02T01:05:08.878Z,7.00
2022-11-02T01:07:53.613Z,5.70
2022-11-02T01:10:40.631Z,6.28
2022-11-02T01:13:28.673Z,9.05
2022-11-02T01:16:14.269Z,7.93
2022-11-02T01:18:59.637Z,6.10
2022-11-02T01:21:44.484Z,5.32
2022-11-02T01:24:29.989Z,6.35
2022-11-02T01:27:14.874Z,8.88
2022-11-02T01:29:59.970Z,6.93
2022-11-02T01:32:45.152Z,5.07
2022-11-02T01:35:30.201Z,8.30
2022-11-02T01:38:14.917Z,6.22
2022-11-02T01:41:00.540Z,10.10
2022-11-02T01:43:47.317Z,6.47
2022-11-02T01:46:42.437Z,10.70
2022-11-02T01:49:28.766Z,6.88
2022-11-02T01:52:21.887Z,5.25
2022-11-02T01:55:16.312Z,8.35
2022-11-02T01:58:06.803Z,3.85
2022-11-02T02:00:52.539Z,5.47
2022-11-02T02:03:38.650Z,8.23
2022-11-02T02:06:26.071Z,6.80
2022-11-02T02:09:13.097Z,6.05
2022-11-02T02:11:57.939Z,5.82
2022-11-02T02:14:43.526Z,5.87
2022-11-02T02:17:43.898Z,9.57
2022-11-02T02:20:34.549Z,3.13
2022-11-02T02:23:19.376Z,5.45
2022-11-02T02:26:42.116Z,6.55
2022-11-02T02:29:46.232Z,5.30
2022-11-02T02:32:48.865Z,5.95
2022-11-02T02:35:43.047Z,6.13
2022-11-02T02:38:35.873Z,7.57
2022-11-02T02:41:29.867Z,7.95
2022-11-02T02:44:19.374Z,7.03
2022-11-02T02:47:16.004Z,6.18
2022-11-02T02:50:13.602Z,4.40
2022-11-02T02:53:01.029Z,8.60
2022-11-02T02:55:49.227Z,7.20
2022-11-02T02:58:50.771Z,5.33
2022-11-02T03:01:40.591Z,8.52
2022-11-02T03:04:25.829Z,5.45
2022-11-02T03:07:15.847Z,5.72
2022-11-02T03:10:25.901Z,5.70
2022-11-02T03:13:28.444Z,5.40
2022-11-02T03:16:28.832Z,5.60
2022-11-02T03:19:36.934Z,5.88
2022-11-02T03:22:34.439Z,9.23
2022-11-02T03:25:23.949Z,6.03
2022-11-02T03:28:33.261Z,7.73
2022-11-02T03:31:34.484Z,6.10
2022-11-02T03:34:34.234Z,6.05
2022-11-02T03:37:26.098Z,6.13
2022-11-02T03:40:25.888Z,6.30
2022-11-02T03:43:14.181Z,8.03
2022-11-02T03:46:02.478Z,6.65
2022-11-02T03:48:50.844Z,8.77
2022-11-02T03:51:39.585Z,8.95
2022-11-02T03:54:42.370Z,4.80
2022-11-02T03:57:35.916Z,6.83
2022-11-02T04:00:23.761Z,5.50
2022-11-02T04:03:11.934Z,4.50
2022-11-02T04:05:56.993Z,2.65
2022-11-02T04:08:45.993Z,7.45
2022-11-02T04:11:50.350Z,8.87
2022-11-02T04:14:37.971Z,6.72
2022-11-02T04:17:41.646Z,4.72
2022-11-02T04:20:26.778Z,7.80
2022-11-02T04:23:30.396Z,5.68
2022-11-02T04:26:15.329Z,7.43
2022-11-02T04:29:00.416Z,7.72
2022-11-02T04:31:45.304Z,5.72
2022-11-02T04:34:30.515Z,8.50
2022-11-02T04:37:33.821Z,7.00
2022-11-02T04:40:18.856Z,5.03
2022-11-02T04:43:04.021Z,6.05
2022-11-02T04:45:49.026Z,8.05
2022-11-02T04:48:34.861Z,5.85
2022-11-02T04:51:21.385Z,6.88
2022-11-02T04:54:06.650Z,3.53
2022-11-02T04:56:51.578Z,3.83
2022-11-02T04:59:36.546Z,8.45
2022-11-02T05:02:21.639Z,4.18
2022-11-02T05:05:07.049Z,5.95
2022-11-02T05:07:52.333Z,8.33
2022-11-02T05:10:37.783Z,7.28
2022-11-02T05:13:24.112Z,3.90
2022-11-02T05:16:12.556Z,4.40
2022-11-02T05:18:57.544Z,9.13
2022-11-02T05:21:42.572Z,6.60
2022-11-02T05:24:27.753Z,4.50
2022-11-02T05:27:12.500Z,3.25
2022-11-02T05:29:57.681Z,8.57
2022-11-02T05:32:42.949Z,6.30
2022-11-02T05:35:28.002Z,4.87
2022-11-02T05:38:13.402Z,9.77
2022-11-02T05:40:59.643Z,5.45
2022-11-02T05:43:44.802Z,5.07
2022-11-02T05:46:29.924Z,9.65
2022-11-02T05:49:14.731Z,10.63
2022-11-02T05:51:59.798Z,3.75
2022-11-02T05:54:44.951Z,3.38
2022-11-02T05:57:30.085Z,5.43
2022-11-02T06:00:15.582Z,5.47
2022-11-02T06:03:00.546Z,6.80
2022-11-02T06:05:46.247Z,7.03
2022-11-02T06:08:35.891Z,8.23
2022-11-02T06:11:20.818Z,5.20
2022-11-02T06:14:05.906Z,8.10
2022-11-02T06:16:51.137Z,8.17
2022-11-02T06:19:36.317Z,3.80
2022-11-02T06:22:21.229Z,4.65
2022-11-02T06:25:06.630Z,8.27
2022-11-02T06:27:56.087Z,3.25
2022-11-02T06:30:42.830Z,7.10
2022-11-02T06:33:28.386Z,4.22
2022-11-02T06:36:13.149Z,5.85
2022-11-02T06:38:58.256Z,7.47
2022-11-02T06:41:43.247Z,5.68
2022-11-02T06:44:28.501Z,10.30
2022-11-02T06:47:13.768Z,7.50
2022-11-02T06:49:59.526Z,4.68
2022-11-02T06:52:46.302Z,5.35
2022-11-02T06:55:31.144Z,3.30
2022-11-02T06:58:15.951Z,5.93
2022-11-02T07:01:03.663Z,5.80
2022-11-02T07:03:48.493Z,3.55
2022-11-02T07:06:33.764Z,4.03
2022-11-02T07:09:18.849Z,9.82
2022-11-02T07:12:05.054Z,5.30
2022-11-02T07:14:50.237Z,4.38
2022-11-02T07:17:39.099Z,7.80
2022-11-02T07:20:24.835Z,6.15
2022-11-02T07:23:10.336Z,7.30
2022-11-02T07:25:55.360Z,6.47
2022-11-02T07:28:40.116Z,8.13
2022-11-02T07:31:24.846Z,6.78
2022-11-02T07:34:15.604Z,5.05
2022-11-02T07:37:01.867Z,10.05
2022-11-02T07:39:47.000Z,3.97
2022-11-02T07:42:32.074Z,1.30
2022-11-02T07:45:17.018Z,3.00
2022-11-02T07:48:02.064Z,5.82
2022-11-02T07:50:47.148Z,10.05
2022-11-02T07:53:32.232Z,5.53
2022-11-02T07:56:17.189Z,4.25
2022-11-02T07:59:02.141Z,4.43
2022-11-02T08:01:47.196Z,6.00
2022-11-02T08:04:33.209Z,2.40
2022-11-02T08:07:18.210Z,8.50
2022-11-02T08:10:03.563Z,4.88
2022-11-02T08:12:48.292Z,4.05
2022-11-02T08:15:33.408Z,4.82
2022-11-02T08:18:24.005Z,7.55
2022-11-02T08:21:08.807Z,3.73
2022-11-02T08:23:58.553Z,4.93
2022-11-02T08:26:45.436Z,5.43
2022-11-02T08:29:31.711Z,6.43
2022-11-02T08:32:16.678Z,4.70
2022-11-02T08:35:01.744Z,5.73
2022-11-02T08:37:54.570Z,15.55
2022-11-02T08:40:40.109Z,9.85
2022-11-02T08:43:25.432Z,4.97
2022-11-02T08:46:15.342Z,8.65
2022-11-02T08:49:01.596Z,6.07
2022-11-02T08:51:47.076Z,4.40
2022-11-02T08:54:32.146Z,5.60
2022-11-02T08:57:16.985Z,11.77
2022-11-02T09:00:02.044Z,5.88
2022-11-02T09:03:10.696Z,7.97
2022-11-02T09:06:01.603Z,3.25
2022-11-02T09:08:46.534Z,4.80
2022-11-02T09:11:32.101Z,6.85
2022-11-02T09:14:17.232Z,9.65
2022-11-02T09:17:02.183Z,10.57
2022-11-02T09:19:47.310Z,4.45
2022-11-02T09:22:32.335Z,3.33
2022-11-02T09:25:17.891Z,4.82
2022-11-02T09:28:02.742Z,7.65
2022-11-02T09:30:48.202Z,5.00
2022-11-02T09:33:34.150Z,10.15
2022-11-02T09:36:19.370Z,4.60
2022-11-02T09:39:04.411Z,3.78
2022-11-02T09:42:04.109Z,6.18
2022-11-02T09:45:06.378Z,2.77
2022-11-02T09:48:16.042Z,10.65
2022-11-02T09:51:06.070Z,5.00
2022-11-02T09:53:59.525Z,5.10
2022-11-02T09:56:45.886Z,8.57
2022-11-02T09:59:31.169Z,5.80
2022-11-02T10:02:42.779Z,5.20
2022-11-02T10:05:43.002Z,4.35
2022-11-02T10:08:39.996Z,3.00
2022-11-02T10:11:40.999Z,6.93
2022-11-02T10:14:34.073Z,3.93
2022-11-02T10:17:26.173Z,5.15
2022-11-02T10:20:23.972Z,8.20
2022-11-02T10:23:19.722Z,5.57
2022-11-02T10:26:04.762Z,8.32
2022-11-02T10:28:56.920Z,5.27
2022-11-02T10:31:42.727Z,6.38
2022-11-02T10:34:28.965Z,6.18
2022-11-02T10:37:35.484Z,3.22
2022-11-02T10:40:29.328Z,5.68
2022-11-02T10:43:35.191Z,5.80
2022-11-02T10:46:42.538Z,4.95
2022-11-02T10:49:41.991Z,4.82
2022-11-02T10:52:35.766Z,4.78
2022-11-02T10:55:30.088Z,2.75
2022-11-02T10:58:20.025Z,0.90
2022-11-02T11:01:10.408Z,6.80
2022-11-02T11:03:58.074Z,5.72
2022-11-02T11:06:43.641Z,4.97
2022-11-02T11:09:33.317Z,5.32
2022-11-02T11:12:34.164Z,6.90
2022-11-02T11:21:37.629Z,4.10
2022-11-02T11:24:27.164Z,3.10
2022-11-02T11:27:11.927Z,4.83
2022-11-02T11:29:58.860Z,7.00
2022-11-02T11:32:47.724Z,6.30
2022-11-02T11:35:35.134Z,5.45
2022-11-02T11:38:27.046Z,4.97
2022-11-02T11:41:12.575Z,5.57
2022-11-02T11:43:57.802Z,7.78
2022-11-02T11:46:53.069Z,4.45
2022-11-02T11:53:19.559Z,3.20
2022-11-02T11:56:04.864Z,7.10
2022-11-02T11:58:52.904Z,2.17
2022-11-02T12:01:39.883Z,5.63
2022-11-02T12:04:29.032Z,4.75
2022-11-02T12:07:30.989Z,9.68
2022-11-02T12:10:40.281Z,4.57
2022-11-02T12:13:47.530Z,2.67
2022-11-02T12:16:48.298Z,3.28
2022-11-02T12:20:01.240Z,5.00
2022-11-02T12:23:13.027Z,2.28
2022-11-02T12:26:35.820Z,5.87
2022-11-02T12:29:37.237Z,4.68
2022-11-02T12:32:46.728Z,7.65
2022-11-02T12:36:02.866Z,2.72
2022-11-02T12:39:15.550Z,6.10
2022-11-02T12:42:21.721Z,3.03
2022-11-02T12:45:52.225Z,4.72
2022-11-02T12:48:55.970Z,6.00
2022-11-02T12:51:54.053Z,13.23
2022-11-02T12:54:47.321Z,5.60
2022-11-02T12:57:37.659Z,4.67
2022-11-02T13:00:23.697Z,8.20
2022-11-02T13:03:21.379Z,6.50
2022-11-02T13:06:13.342Z,8.98
2022-11-02T13:09:06.751Z,6.20
2022-11-02T13:12:02.475Z,4.57
2022-11-02T13:14:50.143Z,2.63
2022-11-02T13:17:48.272Z,5.13
2022-11-02T13:20:43.030Z,5.72
2022-11-02T13:23:33.892Z,3.67
2022-11-02T13:26:30.093Z,5.50
2022-11-02T13:29:26.864Z,7.60
2022-11-02T13:32:23.786Z,20.48
2022-11-02T13:35:27.199Z,4.25
2022-11-02T13:38:39.995Z,7.78
2022-11-02T13:41:32.197Z,4.37
2022-11-02T13:44:59.061Z,2.63
2022-11-02T13:48:08.502Z,2.78
2022-11-02T13:50:58.182Z,4.15
2022-11-02T13:53:52.757Z,4.63
2022-11-02T13:56:38.278Z,4.40
2022-11-02T13:59:35.868Z,6.35
2022-11-02T14:02:24.280Z,7.35
2022-11-02T14:05:20.891Z,4.00
2022-11-02T14:08:17.684Z,4.60
2022-11-02T14:11:24.895Z,2.33
2022-11-02T14:14:09.848Z,3.30
2022-11-02T14:16:58.958Z,6.20
2022-11-02T14:19:43.734Z,3.58
2022-11-02T14:22:31.028Z,6.18
2022-11-02T14:25:18.020Z,4.43
2022-11-02T14:28:22.830Z,6.03
2022-11-02T14:31:16.610Z,5.00
2022-11-02T14:34:25.953Z,1.85
2022-11-02T14:37:28.192Z,7.13
2022-11-02T14:40:44.601Z,4.57
2022-11-02T14:43:57.125Z,5.03
2022-11-02T14:47:07.706Z,4.22
2022-11-02T14:49:56.809Z,4.47
2022-11-02T14:52:53.729Z,4.20
2022-11-02T14:55:39.374Z,7.30
2022-11-02T14:58:36.938Z,5.65
2022-11-02T15:01:22.805Z,2.17
2022-11-02T15:04:08.251Z,4.35
2022-11-02T15:06:59.590Z,4.43
2022-11-02T15:09:59.283Z,5.17
2022-11-02T15:12:46.722Z,5.30
2022-11-02T15:15:36.420Z,8.13
2022-11-02T15:18:31.558Z,5.88
2022-11-02T15:21:19.329Z,5.13
2022-11-02T15:24:16.702Z,5.07
2022-11-02T15:27:03.336Z,4.25
2022-11-02T15:29:49.455Z,5.22
2022-11-02T15:32:40.638Z,7.50
2022-11-02T15:35:31.236Z,7.47
2022-11-02T15:38:19.120Z,5.67
2022-11-02T15:41:06.479Z,5.47
2022-11-02T15:44:28.594Z,4.90
2022-11-02T15:47:30.551Z,4.63
2022-11-02T15:50:24.421Z,4.93
2022-11-02T15:53:29.310Z,4.20
2022-11-02T15:56:29.314Z,5.93
2022-11-02T15:59:49.132Z,2.95
2022-11-02T16:02:37.806Z,5.13
2022-11-02T16:05:29.153Z,6.25
2022-11-02T16:08:34.341Z,4.23
2022-11-02T16:11:20.163Z,7.30
2022-11-02T16:14:17.883Z,7.35
2022-11-02T16:17:03.599Z,4.45
2022-11-02T16:19:49.343Z,9.48
2022-11-02T16:22:34.304Z,9.00
2022-11-02T16:25:39.648Z,7.20
2022-11-02T16:28:28.236Z,12.95
2022-11-02T16:31:30.898Z,5.68
2022-11-02T16:34:29.546Z,9.52
2022-11-02T16:37:17.034Z,10.80
2022-11-02T16:40:02.036Z,3.15
2022-11-02T16:42:49.354Z,7.25
2022-11-02T16:45:42.122Z,6.88
2022-11-02T16:48:31.192Z,5.93
2022-11-02T16:51:18.854Z,5.53
2022-11-02T16:54:40.235Z,6.15
2022-11-02T16:57:28.320Z,8.73
2022-11-02T17:00:18.814Z,7.50
2022-11-02T17:03:10.063Z,9.50
2022-11-02T17:05:57.514Z,4.70
2022-11-02T17:08:44.118Z,5.88
2022-11-02T17:11:29.365Z,9.85
2022-11-02T17:14:15.500Z,7.57
2022-11-02T17:17:27.014Z,4.10
2022-11-02T17:20:14.457Z,11.03
2022-11-02T17:23:02.295Z,7.60
2022-11-02T17:25:47.187Z,7.07
2022-11-02T17:28:45.532Z,7.00
2022-11-02T17:31:33.497Z,7.55
2022-11-02T17:34:20.076Z,12.03
2022-11-02T17:37:06.370Z,9.50
2022-11-02T17:39:52.265Z,5.32
2022-11-02T17:42:55.567Z,7.00
2022-11-02T17:45:40.562Z,7.43
2022-11-02T17:48:28.851Z,10.00
2022-11-02T17:51:15.098Z,8.13
2022-11-02T17:53:59.976Z,12.07
2022-11-02T17:56:45.096Z,7.20
2022-11-02T17:59:30.204Z,8.38
2022-11-02T18:02:16.058Z,5.33
2022-11-02T18:05:01.246Z,6.25
2022-11-02T18:07:46.465Z,7.78
2022-11-02T18:10:38.497Z,9.02
2022-11-02T18:13:24.167Z,10.52
2022-11-02T18:16:08.933Z,5.90
2022-11-02T18:18:54.154Z,8.45
2022-11-02T18:21:39.279Z,9.45
2022-11-02T18:24:24.027Z,10.18
2022-11-02T18:27:09.182Z,10.95
2022-11-02T18:29:53.997Z,13.57
2022-11-02T18:32:40.589Z,12.15
2022-11-02T18:35:25.397Z,13.15
2022-11-02T18:38:10.786Z,10.95
2022-11-02T18:40:55.620Z,13.82
2022-11-02T18:43:40.722Z,12.97
2022-11-02T18:46:29.657Z,14.15
2022-11-02T18:49:15.559Z,11.13
2022-11-02T18:52:00.753Z,16.13
2022-11-02T18:54:45.932Z,18.65
2022-11-02T18:57:32.294Z,13.83
2022-11-02T19:00:17.739Z,20.45
2022-11-02T19:03:02.506Z,18.98
2022-11-02T19:06:06.104Z,13.95
2022-11-02T19:09:10.129Z,13.73
2022-11-02T19:12:01.646Z,18.10
2022-11-02T19:14:49.503Z,13.70
2022-11-02T19:17:34.602Z,13.77
2022-11-02T19:20:19.301Z,12.45
2022-11-02T19:23:04.569Z,14.15
2022-11-02T19:25:51.332Z,13.63
2022-11-02T19:28:36.105Z,21.17
2022-11-02T19:31:21.696Z,10.02
2022-11-02T19:34:06.714Z,13.43
2022-11-02T19:36:51.627Z,12.68
2022-11-02T19:39:37.075Z,13.17
2022-11-02T19:42:21.749Z,13.18
2022-11-02T19:45:07.433Z,12.25
2022-11-02T19:47:52.555Z,9.55
2022-11-02T19:50:37.582Z,10.63
2022-11-02T19:53:22.517Z,13.40
2022-11-02T19:56:12.842Z,11.20
2022-11-02T19:58:58.482Z,12.43
2022-11-02T20:01:46.155Z,10.48
2022-11-02T20:04:31.167Z,10.15
2022-11-02T20:07:16.026Z,15.37
2022-11-02T20:10:01.220Z,17.17
2022-11-02T20:12:46.441Z,16.00
2022-11-02T20:15:34.357Z,14.82
2022-11-02T20:18:23.148Z,15.70
2022-11-02T20:21:12.112Z,16.73
2022-11-02T20:23:58.311Z,15.05
2022-11-02T20:26:43.249Z,12.40
2022-11-02T20:29:29.162Z,14.02
2022-11-02T20:32:15.665Z,12.93
2022-11-02T20:35:00.428Z,13.47
2022-11-02T20:37:45.654Z,12.95
2022-11-02T20:40:32.182Z,14.45
2022-11-02T20:43:17.070Z,13.90
2022-11-02T20:46:31.543Z,8.80
2022-11-02T20:49:20.421Z,9.67
2022-11-02T20:52:07.057Z,8.65
2022-11-02T20:54:52.215Z,6.70
2022-11-02T20:57:37.632Z,7.95
2022-11-02T21:00:22.690Z,10.27
2022-11-02T21:03:07.937Z,15.23
2022-11-02T21:05:53.474Z,13.10
2022-11-02T21:08:39.075Z,13.48
2022-11-02T21:11:42.789Z,12.75
2022-11-02T21:14:28.027Z,13.55
2022-11-02T21:17:13.290Z,11.20
2022-11-02T21:20:14.094Z,13.60
2022-11-02T21:23:04.878Z,14.40
2022-11-02T21:25:58.049Z,12.13
2022-11-02T21:28:46.727Z,10.20
2022-11-02T21:31:31.574Z,14.57
2022-11-02T21:34:16.794Z,10.52
2022-11-02T21:37:06.345Z,12.88
2022-11-02T21:39:51.442Z,20.10
2022-11-02T21:42:36.781Z,17.85
2022-11-02T21:45:25.978Z,8.03
2022-11-02T21:48:11.114Z,11.38
2022-11-02T21:51:16.213Z,12.45
2022-11-02T21:54:01.225Z,8.70
2022-11-02T21:56:48.217Z,12.98
2022-11-02T21:59:32.994Z,10.93
2022-11-02T22:02:18.879Z,11.00
2022-11-02T22:05:04.185Z,10.57
2022-11-02T22:08:07.543Z,11.23
2022-11-02T22:10:57.031Z,8.32
2022-11-02T22:13:43.376Z,7.83
2022-11-02T22:16:31.709Z,8.88
2022-11-02T22:19:16.788Z,6.82
2022-11-02T22:22:01.810Z,6.90
2022-11-02T22:24:47.560Z,9.60
2022-11-02T22:27:32.435Z,9.37
2022-11-02T22:30:17.452Z,8.85
2022-11-02T22:33:03.282Z,11.23
2022-11-02T22:35:48.478Z,13.23
2022-11-02T22:38:51.044Z,11.07
2022-11-02T22:41:37.799Z,11.43
2022-11-02T22:44:22.517Z,10.65
2022-11-02T22:47:07.844Z,8.85
2022-11-02T22:49:52.898Z,5.90
2022-11-02T22:52:37.883Z,6.15
2022-11-02T22:55:22.876Z,9.40
2022-11-02T22:58:08.025Z,5.88
2022-11-02T23:00:53.655Z,8.82
2022-11-02T23:03:38.957Z,10.05
2022-11-02T23:06:25.090Z,7.90
2022-11-02T23:09:11.289Z,6.37
2022-11-02T23:11:56.087Z,9.55
2022-11-02T23:14:42.352Z,10.00
2022-11-02T23:17:27.085Z,6.53
2022-11-02T23:20:12.197Z,8.20
2022-11-02T23:23:18.954Z,5.43
2022-11-02T23:26:04.466Z,5.18
2022-11-02T23:29:08.279Z,3.53
2022-11-02T23:32:11.806Z,4.65
2022-11-02T23:35:17.401Z,4.78
2022-11-02T23:38:04.918Z,7.77
2022-11-02T23:40:55.813Z,16.65
2022-11-02T23:43:40.721Z,7.63
2022-11-02T23:46:25.710Z,11.35
2022-11-02T23:49:11.949Z,7.25
2022-11-02T23:52:15.556Z,6.23
2022-11-02T23:55:19.211Z,4.85
2022-11-02T23:58:04.171Z,6.55
